createdAt,value
2018-05-31T00:00:05.996Z,6.25
2018-05-31T00:00:27.284Z,5.90
2018-05-31T00:00:50.353Z,6.20
2018-05-31T00:01:11.994Z,6.05
2018-05-31T00:01:34.199Z,6.00
2018-05-31T00:01:56.640Z,6.40
2018-05-31T00:02:18.727Z,6.30
2018-05-31T00:02:40.435Z,6.43
2018-05-31T00:03:01.739Z,6.25
2018-05-31T00:03:23.409Z,5.93
2018-05-31T00:03:44.660Z,6.32
2018-05-31T00:04:06.729Z,6.10
2018-05-31T00:04:28.387Z,5.90
2018-05-31T00:04:50.510Z,6.12
2018-05-31T00:05:12.195Z,5.72
2018-05-31T00:05:33.495Z,5.87
2018-05-31T00:05:55.252Z,5.82
2018-05-31T00:06:20.861Z,5.87
2018-05-31T00:06:42.141Z,6.00
2018-05-31T00:07:05.181Z,5.85
2018-05-31T00:07:27.218Z,5.78
2018-05-31T00:07:49.298Z,6.12
2018-05-31T00:08:10.635Z,5.87
2018-05-31T00:08:31.950Z,5.80
2018-05-31T00:08:53.988Z,5.65
2018-05-31T00:09:15.657Z,5.57
2018-05-31T00:09:36.943Z,6.05
2018-05-31T00:09:58.626Z,5.85
2018-05-31T00:10:20.690Z,5.75
2018-05-31T00:10:43.712Z,5.90
2018-05-31T00:11:06.471Z,6.10
2018-05-31T00:11:27.761Z,5.90
2018-05-31T00:11:49.834Z,5.78
2018-05-31T00:12:15.434Z,6.10
2018-05-31T00:12:36.770Z,6.30
2018-05-31T00:12:58.090Z,6.20
2018-05-31T00:13:19.394Z,5.95
2018-05-31T00:13:40.706Z,5.95
2018-05-31T00:14:02.400Z,5.80
2018-05-31T00:14:24.355Z,5.75
2018-05-31T00:14:45.597Z,5.70
2018-05-31T00:15:07.229Z,5.53
2018-05-31T00:15:30.246Z,6.03
2018-05-31T00:15:51.504Z,6.37
2018-05-31T00:16:13.118Z,6.22
2018-05-31T00:16:35.099Z,5.65
2018-05-31T00:16:56.346Z,5.80
2018-05-31T00:17:17.955Z,5.87
2018-05-31T00:17:40.710Z,5.80
2018-05-31T00:18:02.705Z,5.60
2018-05-31T00:18:23.954Z,5.68
2018-05-31T00:18:45.220Z,5.55
2018-05-31T00:19:07.582Z,5.70
2018-05-31T00:19:28.817Z,5.60
2018-05-31T00:19:51.861Z,5.53
2018-05-31T00:20:14.874Z,5.68
2018-05-31T00:20:37.835Z,5.82
2018-05-31T00:21:00.210Z,5.65
2018-05-31T00:21:21.910Z,5.93
2018-05-31T00:21:43.907Z,6.05
2018-05-31T00:22:05.292Z,5.60
2018-05-31T00:22:26.571Z,5.60
2018-05-31T00:22:48.588Z,6.03
2018-05-31T00:23:11.324Z,6.00
2018-05-31T00:23:33.695Z,5.60
2018-05-31T00:23:55.720Z,5.60
2018-05-31T00:24:18.688Z,5.90
2018-05-31T00:24:39.929Z,5.50
2018-05-31T00:25:01.524Z,5.60
2018-05-31T00:25:23.564Z,5.95
2018-05-31T00:25:46.555Z,5.80
2018-05-31T00:26:08.228Z,5.68
2018-05-31T00:26:29.460Z,5.45
2018-05-31T00:26:51.855Z,5.87
2018-05-31T00:27:13.135Z,6.12
2018-05-31T00:27:34.370Z,5.60
2018-05-31T00:27:56.741Z,5.60
2018-05-31T00:28:19.723Z,6.18
2018-05-31T00:28:41.694Z,6.00
2018-05-31T00:29:04.676Z,5.95
2018-05-31T00:29:26.341Z,5.47
2018-05-31T00:29:47.582Z,5.85
2018-05-31T00:30:10.649Z,5.50
2018-05-31T00:30:32.700Z,5.87
2018-05-31T00:30:54.393Z,5.85
2018-05-31T00:31:16.068Z,5.65
2018-05-31T00:31:38.026Z,5.25
2018-05-31T00:32:00.052Z,5.70
2018-05-31T00:32:22.095Z,5.62
2018-05-31T00:32:44.848Z,5.75
2018-05-31T00:33:06.111Z,5.82
2018-05-31T00:33:27.698Z,6.05
2018-05-31T00:33:49.340Z,5.40
2018-05-31T00:34:10.624Z,5.65
2018-05-31T00:34:31.910Z,5.25
2018-05-31T00:34:54.877Z,5.10
2018-05-31T00:35:16.501Z,5.28
2018-05-31T00:35:38.259Z,5.62
2018-05-31T00:35:59.519Z,5.82
2018-05-31T00:36:22.534Z,5.70
2018-05-31T00:36:44.934Z,6.28
2018-05-31T00:37:06.929Z,6.53
2018-05-31T00:37:29.936Z,6.93
2018-05-31T00:37:51.239Z,6.05
2018-05-31T00:38:12.633Z,5.50
2018-05-31T00:38:34.604Z,5.62
2018-05-31T00:38:55.858Z,5.78
2018-05-31T00:39:17.488Z,5.85
2018-05-31T00:39:38.837Z,5.75
2018-05-31T00:40:00.431Z,5.53
2018-05-31T00:40:22.603Z,6.05
2018-05-31T00:40:45.577Z,6.40
2018-05-31T00:41:06.811Z,5.87
2018-05-31T00:41:28.795Z,5.62
2018-05-31T00:41:51.828Z,5.85
2018-05-31T00:42:13.848Z,6.28
2018-05-31T00:42:35.442Z,5.70
2018-05-31T00:42:56.750Z,5.53
2018-05-31T00:43:18.338Z,5.30
2018-05-31T00:43:41.307Z,5.82
2018-05-31T00:44:02.889Z,5.55
2018-05-31T00:44:24.098Z,5.22
2018-05-31T00:44:47.123Z,5.78
2018-05-31T00:45:09.114Z,6.10
2018-05-31T00:45:32.641Z,5.65
2018-05-31T00:45:54.353Z,5.97
2018-05-31T00:46:17.349Z,5.37
2018-05-31T00:46:40.084Z,5.03
2018-05-31T00:47:01.339Z,5.95
2018-05-31T00:47:22.998Z,6.22
2018-05-31T00:47:44.369Z,6.00
2018-05-31T00:48:05.647Z,5.75
2018-05-31T00:48:27.298Z,5.53
2018-05-31T00:48:48.939Z,5.78
2018-05-31T00:49:10.221Z,6.07
2018-05-31T00:49:33.187Z,5.78
2018-05-31T00:49:56.198Z,6.30
2018-05-31T00:50:18.185Z,5.90
2018-05-31T00:50:39.424Z,5.80
2018-05-31T00:51:02.217Z,6.00
2018-05-31T00:51:24.249Z,6.10
2018-05-31T00:51:45.853Z,6.32
2018-05-31T00:52:07.079Z,6.28
2018-05-31T00:52:29.434Z,6.22
2018-05-31T00:52:51.422Z,6.40
2018-05-31T00:53:12.805Z,6.05
2018-05-31T00:53:34.455Z,5.65
2018-05-31T00:53:56.442Z,6.30
2018-05-31T00:54:18.414Z,6.43
2018-05-31T00:54:40.446Z,6.00
2018-05-31T00:55:02.814Z,6.28
2018-05-31T00:55:42.651Z,6.47
2018-05-31T00:56:13.161Z,6.37
2018-05-31T00:56:34.429Z,5.97
2018-05-31T00:56:56.060Z,6.15
2018-05-31T00:57:18.424Z,5.75
2018-05-31T00:57:39.707Z,6.22
2018-05-31T00:58:02.061Z,6.00
2018-05-31T00:58:24.783Z,5.93
2018-05-31T00:58:47.564Z,5.90
2018-05-31T00:59:08.804Z,6.25
2018-05-31T00:59:30.809Z,6.85
2018-05-31T00:59:53.809Z,6.53
2018-05-31T01:00:15.048Z,6.22
2018-05-31T01:00:36.809Z,6.70
2018-05-31T01:00:59.839Z,6.62
2018-05-31T01:01:22.305Z,6.30
2018-05-31T01:01:43.997Z,6.30
2018-05-31T01:02:05.225Z,6.47
2018-05-31T01:02:27.287Z,6.10
2018-05-31T01:02:48.566Z,5.93
2018-05-31T01:03:09.809Z,5.68
2018-05-31T01:03:32.821Z,5.57
2018-05-31T01:03:54.066Z,5.97
2018-05-31T01:04:16.120Z,5.93
2018-05-31T01:04:37.729Z,5.75
2018-05-31T01:04:59.089Z,6.18
2018-05-31T01:05:22.114Z,5.70
2018-05-31T01:05:44.097Z,6.12
2018-05-31T01:06:05.791Z,6.15
2018-05-31T01:06:27.497Z,6.00
2018-05-31T01:06:49.226Z,5.70
2018-05-31T01:07:10.573Z,5.87
2018-05-31T01:07:32.661Z,5.80
2018-05-31T01:07:54.276Z,5.68
2018-05-31T01:08:17.280Z,5.40
2018-05-31T01:08:38.531Z,5.18
2018-05-31T01:09:00.537Z,5.20
2018-05-31T01:09:22.581Z,5.32
2018-05-31T01:09:45.569Z,5.72
2018-05-31T01:10:08.552Z,5.47
2018-05-31T01:10:30.568Z,5.62
2018-05-31T01:10:53.565Z,5.60
2018-05-31T01:11:16.901Z,5.57
2018-05-31T01:11:38.120Z,5.70
2018-05-31T01:11:59.376Z,5.80
2018-05-31T01:12:21.618Z,5.70
2018-05-31T01:12:43.283Z,5.70
2018-05-31T01:13:05.310Z,5.93
2018-05-31T01:13:27.320Z,5.75
2018-05-31T01:13:49.694Z,5.57
2018-05-31T01:14:10.978Z,5.82
2018-05-31T01:14:33.329Z,5.85
2018-05-31T01:14:55.312Z,5.90
2018-05-31T01:15:17.276Z,5.85
2018-05-31T01:15:40.320Z,5.82
2018-05-31T01:16:01.627Z,6.10
2018-05-31T01:16:23.244Z,6.10
2018-05-31T01:16:45.298Z,6.37
2018-05-31T01:17:07.333Z,6.10
2018-05-31T01:17:28.658Z,5.80
2018-05-31T01:17:50.360Z,5.80
2018-05-31T01:18:13.088Z,5.87
2018-05-31T01:18:34.353Z,6.10
2018-05-31T01:18:56.345Z,6.03
2018-05-31T01:19:18.694Z,5.80
2018-05-31T01:19:40.275Z,6.18
2018-05-31T01:20:01.519Z,6.12
2018-05-31T01:20:23.509Z,5.97
2018-05-31T01:20:44.822Z,5.68
2018-05-31T01:21:06.033Z,5.78
2018-05-31T01:21:29.053Z,6.37
2018-05-31T01:21:50.682Z,6.32
2018-05-31T01:22:11.978Z,6.57
2018-05-31T01:22:33.288Z,6.20
2018-05-31T01:22:54.924Z,6.28
2018-05-31T01:23:16.558Z,6.30
2018-05-31T01:23:38.176Z,6.15
2018-05-31T01:24:00.145Z,6.22
2018-05-31T01:24:23.153Z,6.43
2018-05-31T01:24:46.132Z,6.93
2018-05-31T01:25:09.139Z,6.45
2018-05-31T01:25:31.122Z,6.60
2018-05-31T01:25:53.155Z,6.40
2018-05-31T01:26:16.270Z,6.22
2018-05-31T01:26:37.902Z,6.25
2018-05-31T01:26:59.210Z,6.28
2018-05-31T01:27:20.493Z,6.18
2018-05-31T01:27:42.850Z,6.28
2018-05-31T01:28:04.856Z,5.90
2018-05-31T01:28:27.817Z,6.22
2018-05-31T01:28:50.840Z,6.50
2018-05-31T01:29:13.419Z,6.50
2018-05-31T01:29:36.176Z,6.30
2018-05-31T01:29:58.184Z,6.07
2018-05-31T01:30:20.981Z,6.00
2018-05-31T01:30:43.942Z,6.20
2018-05-31T01:31:05.700Z,6.40
2018-05-31T01:31:26.974Z,6.25
2018-05-31T01:31:49.310Z,5.90
2018-05-31T01:32:11.679Z,5.65
2018-05-31T01:32:33.858Z,6.05
2018-05-31T01:32:55.096Z,6.40
2018-05-31T01:33:16.346Z,6.20
2018-05-31T01:33:37.620Z,5.75
2018-05-31T01:33:59.249Z,5.90
2018-05-31T01:34:20.506Z,5.70
2018-05-31T01:34:42.145Z,5.70
2018-05-31T01:35:03.378Z,6.05
2018-05-31T01:35:26.411Z,5.80
2018-05-31T01:35:48.418Z,5.80
2018-05-31T01:36:09.711Z,5.90
2018-05-31T01:36:31.734Z,6.03
2018-05-31T01:36:53.343Z,5.97
2018-05-31T01:37:16.113Z,6.18
2018-05-31T01:37:39.145Z,6.12
2018-05-31T01:38:19.553Z,6.07
2018-05-31T01:38:40.938Z,6.12
2018-05-31T01:39:02.258Z,6.30
2018-05-31T01:39:23.541Z,6.10
2018-05-31T01:39:45.171Z,6.07
2018-05-31T01:40:06.464Z,6.18
2018-05-31T01:40:27.754Z,6.50
2018-05-31T01:40:49.383Z,5.93
2018-05-31T01:41:12.190Z,5.97
2018-05-31T01:41:33.832Z,5.90
2018-05-31T01:41:55.084Z,5.82
2018-05-31T01:42:18.139Z,5.62
2018-05-31T01:42:39.806Z,5.68
2018-05-31T01:43:01.075Z,5.53
2018-05-31T01:43:22.379Z,5.90
2018-05-31T01:43:44.847Z,5.90
2018-05-31T01:44:06.106Z,5.85
2018-05-31T01:44:28.830Z,5.95
2018-05-31T01:44:50.434Z,6.78
2018-05-31T01:45:12.876Z,6.50
2018-05-31T01:45:35.889Z,6.05
2018-05-31T01:45:57.939Z,6.30
2018-05-31T01:46:19.198Z,5.80
2018-05-31T01:46:42.206Z,5.80
2018-05-31T01:47:04.534Z,6.00
2018-05-31T01:47:26.597Z,6.15
2018-05-31T01:47:48.998Z,6.53
2018-05-31T01:48:10.655Z,5.90
2018-05-31T01:48:33.655Z,5.85
2018-05-31T01:48:54.918Z,6.03
2018-05-31T01:49:18.083Z,6.03
2018-05-31T01:49:39.765Z,6.10
2018-05-31T01:50:01.768Z,5.90
2018-05-31T01:50:24.765Z,6.20
2018-05-31T01:50:47.744Z,6.57
2018-05-31T01:51:09.711Z,7.22
2018-05-31T01:51:30.992Z,7.25
2018-05-31T01:51:53.997Z,7.18
2018-05-31T01:52:15.291Z,7.70
2018-05-31T01:52:36.979Z,7.03
2018-05-31T01:52:58.570Z,7.37
2018-05-31T01:53:20.165Z,7.80
2018-05-31T01:53:43.130Z,7.85
2018-05-31T01:54:05.162Z,7.70
2018-05-31T01:54:26.448Z,7.50
2018-05-31T01:54:49.481Z,8.10
2018-05-31T01:55:12.500Z,7.80
2018-05-31T01:55:35.211Z,7.50
2018-05-31T01:55:57.562Z,7.40
2018-05-31T01:56:20.287Z,7.55
2018-05-31T01:56:41.895Z,7.47
2018-05-31T01:57:04.860Z,7.87
2018-05-31T01:57:26.851Z,7.55
2018-05-31T01:57:50.272Z,7.45
2018-05-31T01:58:12.002Z,7.55
2018-05-31T01:58:33.653Z,7.35
2018-05-31T01:58:56.363Z,7.70
2018-05-31T01:59:19.101Z,7.57
2018-05-31T01:59:41.095Z,7.10
2018-05-31T02:00:02.762Z,7.12
2018-05-31T02:00:24.820Z,7.55
2018-05-31T02:00:46.104Z,7.80
2018-05-31T02:01:07.721Z,7.45
2018-05-31T02:01:30.716Z,8.13
2018-05-31T02:01:52.332Z,8.13
2018-05-31T02:02:13.981Z,8.07
2018-05-31T02:02:35.226Z,8.27
2018-05-31T02:02:57.961Z,8.60
2018-05-31T02:03:19.621Z,8.05
2018-05-31T02:03:41.635Z,7.87
2018-05-31T02:04:04.386Z,7.80
2018-05-31T02:04:26.732Z,7.75
2018-05-31T02:04:48.726Z,7.30
2018-05-31T02:05:10.734Z,7.07
2018-05-31T02:05:31.980Z,7.65
2018-05-31T02:05:53.227Z,8.50
2018-05-31T02:06:15.808Z,7.95
2018-05-31T02:06:37.055Z,7.20
2018-05-31T02:06:58.356Z,7.35
2018-05-31T02:07:19.647Z,8.55
2018-05-31T02:07:42.175Z,8.80
2018-05-31T02:08:03.381Z,7.72
2018-05-31T02:08:26.413Z,7.57
2018-05-31T02:08:47.616Z,9.18
2018-05-31T02:09:09.596Z,9.05
2018-05-31T02:09:31.648Z,7.85
2018-05-31T02:09:52.963Z,7.95
2018-05-31T02:10:15.013Z,7.50
2018-05-31T02:10:36.652Z,8.50
2018-05-31T02:10:57.932Z,8.10
2018-05-31T02:11:21.002Z,7.78
2018-05-31T02:11:42.741Z,9.07
2018-05-31T02:12:05.116Z,9.50
2018-05-31T02:12:27.124Z,8.50
2018-05-31T02:12:48.373Z,9.35
2018-05-31T02:13:10.811Z,9.30
2018-05-31T02:13:32.447Z,8.18
2018-05-31T02:13:55.401Z,8.52
2018-05-31T02:14:17.013Z,8.55
2018-05-31T02:14:39.988Z,8.07
2018-05-31T02:15:02.954Z,8.55
2018-05-31T02:15:25.948Z,8.98
2018-05-31T02:15:48.930Z,8.80
2018-05-31T02:16:10.986Z,8.90
2018-05-31T02:16:32.988Z,8.43
2018-05-31T02:16:55.979Z,8.18
2018-05-31T02:17:17.242Z,8.57
2018-05-31T02:17:39.601Z,8.73
2018-05-31T02:18:02.373Z,8.70
2018-05-31T02:18:24.710Z,8.62
2018-05-31T02:18:45.961Z,8.48
2018-05-31T02:19:08.311Z,8.80
2018-05-31T02:19:29.955Z,9.27
2018-05-31T02:19:51.596Z,8.73
2018-05-31T02:20:13.189Z,8.90
2018-05-31T02:20:36.188Z,8.90
2018-05-31T02:20:58.981Z,8.57
2018-05-31T02:21:21.380Z,8.35
2018-05-31T02:21:42.597Z,8.20
2018-05-31T02:22:04.301Z,8.52
2018-05-31T02:22:27.301Z,8.43
2018-05-31T02:22:49.131Z,8.48
2018-05-31T02:23:12.155Z,8.20
2018-05-31T02:23:33.378Z,8.23
2018-05-31T02:23:54.630Z,8.13
2018-05-31T02:24:15.896Z,8.32
2018-05-31T02:24:37.505Z,8.88
2018-05-31T02:25:00.536Z,7.82
2018-05-31T02:25:22.882Z,7.53
2018-05-31T02:25:44.145Z,7.87
2018-05-31T02:26:06.517Z,7.60
2018-05-31T02:26:29.491Z,7.78
2018-05-31T02:26:52.477Z,7.57
2018-05-31T02:27:14.091Z,7.55
2018-05-31T02:27:36.905Z,7.68
2018-05-31T02:27:59.324Z,7.05
2018-05-31T02:28:20.956Z,7.53
2018-05-31T02:28:42.223Z,6.70
2018-05-31T02:29:05.246Z,7.28
2018-05-31T02:29:27.290Z,6.87
2018-05-31T02:29:48.980Z,7.05
2018-05-31T02:30:10.225Z,6.95
2018-05-31T02:30:31.829Z,6.47
2018-05-31T02:30:54.826Z,6.68
2018-05-31T02:31:16.967Z,7.07
2018-05-31T02:31:38.551Z,7.05
2018-05-31T02:32:01.543Z,6.50
2018-05-31T02:32:24.565Z,6.70
2018-05-31T02:32:45.822Z,6.70
2018-05-31T02:33:07.059Z,6.47
2018-05-31T02:33:29.029Z,6.50
2018-05-31T02:33:52.012Z,6.75
2018-05-31T02:34:13.603Z,6.60
2018-05-31T02:34:35.235Z,6.60
2018-05-31T02:34:58.216Z,6.60
2018-05-31T02:35:19.445Z,6.53
2018-05-31T02:35:41.927Z,6.20
2018-05-31T02:36:04.908Z,5.85
2018-05-31T02:36:26.559Z,6.32
2018-05-31T02:36:48.531Z,6.10
2018-05-31T02:37:10.547Z,6.15
2018-05-31T02:37:32.172Z,6.03
2018-05-31T02:37:53.445Z,6.03
2018-05-31T02:38:16.224Z,6.30
2018-05-31T02:38:37.867Z,6.30
2018-05-31T02:38:59.141Z,6.00
2018-05-31T02:39:21.504Z,6.15
2018-05-31T02:39:42.718Z,6.18
2018-05-31T02:40:05.075Z,6.47
2018-05-31T02:40:26.294Z,6.12
2018-05-31T02:40:47.932Z,5.93
2018-05-31T02:41:10.923Z,6.12
2018-05-31T02:41:33.911Z,6.25
2018-05-31T02:41:55.542Z,6.18
2018-05-31T02:42:16.826Z,5.75
2018-05-31T02:42:38.832Z,5.80
2018-05-31T02:43:01.178Z,5.75
2018-05-31T02:43:22.809Z,5.95
2018-05-31T02:43:44.031Z,6.35
2018-05-31T02:44:05.339Z,6.25
2018-05-31T02:44:26.579Z,5.97
2018-05-31T02:44:47.877Z,6.05
2018-05-31T02:45:09.903Z,6.07
2018-05-31T02:45:31.573Z,5.70
2018-05-31T02:45:54.542Z,5.60
2018-05-31T02:46:16.535Z,5.97
2018-05-31T02:46:38.148Z,6.00
2018-05-31T02:47:00.516Z,5.80
2018-05-31T02:47:22.162Z,5.82
2018-05-31T02:47:43.811Z,5.82
2018-05-31T02:48:05.422Z,6.32
2018-05-31T02:48:26.696Z,5.82
2018-05-31T02:48:48.359Z,5.37
2018-05-31T02:49:11.365Z,5.72
2018-05-31T02:49:32.676Z,5.78
2018-05-31T02:49:54.642Z,5.72
2018-05-31T02:50:16.293Z,5.45
2018-05-31T02:50:37.913Z,5.70
2018-05-31T02:50:59.207Z,5.75
2018-05-31T02:51:20.433Z,5.87
2018-05-31T02:51:41.685Z,5.82
2018-05-31T02:52:03.335Z,6.07
2018-05-31T02:52:24.592Z,5.80
2018-05-31T02:52:46.568Z,5.72
2018-05-31T02:53:09.604Z,5.80
2018-05-31T02:53:30.813Z,5.70
2018-05-31T02:53:53.216Z,5.40
2018-05-31T02:54:15.247Z,5.65
2018-05-31T02:54:38.220Z,5.75
2018-05-31T02:54:59.854Z,5.70
2018-05-31T02:55:21.096Z,6.12
2018-05-31T02:55:42.371Z,6.03
2018-05-31T02:56:04.354Z,5.70
2018-05-31T02:56:25.627Z,6.53
2018-05-31T02:56:48.631Z,6.30
2018-05-31T02:57:11.385Z,5.82
2018-05-31T02:57:34.467Z,6.30
2018-05-31T02:57:56.085Z,5.95
2018-05-31T02:58:18.066Z,6.25
2018-05-31T02:58:39.291Z,5.72
2018-05-31T02:59:00.559Z,5.28
2018-05-31T02:59:23.262Z,5.40
2018-05-31T02:59:44.937Z,5.90
2018-05-31T03:00:06.914Z,5.35
2018-05-31T03:00:29.857Z,5.45
2018-05-31T03:00:51.091Z,5.43
2018-05-31T03:01:12.717Z,5.43
2018-05-31T03:01:35.754Z,5.50
2018-05-31T03:01:57.370Z,5.65
2018-05-31T03:02:18.622Z,5.40
2018-05-31T03:02:40.230Z,5.62
2018-05-31T03:03:02.242Z,5.72
2018-05-31T03:03:24.969Z,6.10
2018-05-31T03:03:47.676Z,6.00
2018-05-31T03:04:09.289Z,6.22
2018-05-31T03:04:32.244Z,6.25
2018-05-31T03:04:54.260Z,5.78
2018-05-31T03:05:15.488Z,5.85
2018-05-31T03:05:38.484Z,5.72
2018-05-31T03:06:00.449Z,5.95
2018-05-31T03:06:21.818Z,5.47
2018-05-31T03:06:43.455Z,5.62
2018-05-31T03:07:05.857Z,5.70
2018-05-31T03:07:27.870Z,5.03
2018-05-31T03:07:50.273Z,5.72
2018-05-31T03:08:12.599Z,5.50
2018-05-31T03:08:33.838Z,5.32
2018-05-31T03:08:56.842Z,5.53
2018-05-31T03:09:19.244Z,5.50
2018-05-31T03:09:40.848Z,5.37
2018-05-31T03:10:02.908Z,5.00
2018-05-31T03:10:27.320Z,5.00
2018-05-31T03:10:48.922Z,4.78
2018-05-31T03:11:10.938Z,4.68
2018-05-31T03:11:33.662Z,5.00
2018-05-31T03:11:55.286Z,5.18
2018-05-31T03:12:17.665Z,4.80
2018-05-31T03:12:38.941Z,5.25
2018-05-31T03:13:01.321Z,5.30
2018-05-31T03:13:23.003Z,4.87
2018-05-31T03:13:45.735Z,4.80
2018-05-31T03:14:11.723Z,5.07
2018-05-31T03:14:33.793Z,4.55
2018-05-31T03:14:56.545Z,4.80
2018-05-31T03:15:19.284Z,5.20
2018-05-31T03:15:42.260Z,4.85
2018-05-31T03:16:03.505Z,4.62
2018-05-31T03:16:25.846Z,5.12
2018-05-31T03:16:48.829Z,5.00
2018-05-31T03:17:10.102Z,5.10
2018-05-31T03:17:31.342Z,5.30
2018-05-31T03:17:53.707Z,5.30
2018-05-31T03:18:16.066Z,4.90
2018-05-31T03:18:37.292Z,4.72
2018-05-31T03:18:58.606Z,4.85
2018-05-31T03:19:19.847Z,4.97
2018-05-31T03:19:42.222Z,5.10
2018-05-31T03:20:03.519Z,5.10
2018-05-31T03:20:24.782Z,4.93
2018-05-31T03:20:47.163Z,4.70
2018-05-31T03:21:09.213Z,4.50
2018-05-31T03:21:30.813Z,4.80
2018-05-31T03:21:53.786Z,4.25
2018-05-31T03:22:16.548Z,5.07
2018-05-31T03:22:38.553Z,5.37
2018-05-31T03:23:00.541Z,5.30
2018-05-31T03:23:23.521Z,5.10
2018-05-31T03:23:44.778Z,5.37
2018-05-31T03:24:07.840Z,5.10
2018-05-31T03:24:30.801Z,5.43
2018-05-31T03:24:52.053Z,5.22
2018-05-31T03:25:14.047Z,5.05
2018-05-31T03:25:37.043Z,4.80
2018-05-31T03:25:58.285Z,5.00
2018-05-31T03:26:20.607Z,5.47
2018-05-31T03:26:42.686Z,4.82
2018-05-31T03:27:04.685Z,4.50
2018-05-31T03:27:26.289Z,4.30
2018-05-31T03:27:47.513Z,4.70
2018-05-31T03:28:09.601Z,4.32
2018-05-31T03:28:32.309Z,4.62
2018-05-31T03:28:54.285Z,4.57
2018-05-31T03:29:17.113Z,4.47
2018-05-31T03:29:39.844Z,4.72
2018-05-31T03:30:01.515Z,4.35
2018-05-31T03:30:24.558Z,4.28
2018-05-31T03:30:45.877Z,4.20
2018-05-31T03:31:07.886Z,3.90
2018-05-31T03:31:29.481Z,3.53
2018-05-31T03:31:51.116Z,3.80
2018-05-31T03:32:13.458Z,3.83
2018-05-31T03:32:35.076Z,3.85
2018-05-31T03:32:56.370Z,3.83
2018-05-31T03:33:18.378Z,3.83
2018-05-31T03:33:40.072Z,3.70
2018-05-31T03:34:01.379Z,4.07
2018-05-31T03:34:24.309Z,3.83
2018-05-31T03:34:47.369Z,3.80
2018-05-31T03:35:08.967Z,4.05
2018-05-31T03:35:31.334Z,3.75
2018-05-31T03:35:53.349Z,3.45
2018-05-31T03:36:15.349Z,4.00
2018-05-31T03:36:36.965Z,3.60
2018-05-31T03:36:58.249Z,3.90
2018-05-31T03:37:19.559Z,3.83
2018-05-31T03:37:42.319Z,3.92
2018-05-31T03:38:03.618Z,4.03
2018-05-31T03:38:24.870Z,3.90
2018-05-31T03:38:47.866Z,3.72
2018-05-31T03:39:10.008Z,3.60
2018-05-31T03:39:31.660Z,3.70
2018-05-31T03:39:52.914Z,3.20
2018-05-31T03:40:14.915Z,3.30
2018-05-31T03:40:36.188Z,3.42
2018-05-31T03:40:57.829Z,3.85
2018-05-31T03:41:19.418Z,3.45
2018-05-31T03:41:42.380Z,3.30
2018-05-31T03:42:04.418Z,3.22
2018-05-31T03:42:26.023Z,3.47
2018-05-31T03:42:48.053Z,3.60
2018-05-31T03:43:09.347Z,3.50
2018-05-31T03:43:30.609Z,3.42
2018-05-31T03:43:51.836Z,3.25
2018-05-31T03:44:14.213Z,3.40
2018-05-31T03:44:35.452Z,3.12
2018-05-31T03:44:58.465Z,3.33
2018-05-31T03:45:21.589Z,3.25
2018-05-31T03:45:44.301Z,3.47
2018-05-31T03:46:06.289Z,3.58
2018-05-31T03:46:28.621Z,3.40
2018-05-31T03:46:51.601Z,3.33
2018-05-31T03:47:13.603Z,3.40
2018-05-31T03:47:35.603Z,3.08
2018-05-31T03:47:56.875Z,3.20
2018-05-31T03:48:18.140Z,3.50
2018-05-31T03:48:41.141Z,3.20
2018-05-31T03:49:02.389Z,3.00
2018-05-31T03:49:23.767Z,3.10
2018-05-31T03:49:45.395Z,3.03
2018-05-31T03:50:08.365Z,3.28
2018-05-31T03:50:30.705Z,3.30
2018-05-31T03:50:53.426Z,3.08
2018-05-31T03:51:15.181Z,3.05
2018-05-31T03:51:36.443Z,2.97
2018-05-31T03:51:57.711Z,3.03
2018-05-31T03:52:20.067Z,2.97
2018-05-31T03:52:42.147Z,2.90
2018-05-31T03:53:03.780Z,2.90
2018-05-31T03:53:24.999Z,3.00
2018-05-31T03:53:46.244Z,3.17
2018-05-31T03:54:09.247Z,2.90
2018-05-31T03:54:31.258Z,2.75
2018-05-31T03:54:54.269Z,3.35
2018-05-31T03:55:17.248Z,3.60
2018-05-31T03:55:38.946Z,3.37
2018-05-31T03:56:00.185Z,3.45
2018-05-31T03:56:21.785Z,2.97
2018-05-31T03:56:43.777Z,3.55
2018-05-31T03:57:06.791Z,3.20
2018-05-31T03:57:29.761Z,3.22
2018-05-31T03:57:52.463Z,3.33
2018-05-31T03:58:14.461Z,3.20
2018-05-31T03:58:37.429Z,3.40
2018-05-31T03:58:59.813Z,3.12
2018-05-31T03:59:21.428Z,2.90
2018-05-31T03:59:43.805Z,3.17
2018-05-31T04:00:05.140Z,3.10
2018-05-31T04:00:26.769Z,2.92
2018-05-31T04:00:49.181Z,2.70
2018-05-31T04:01:11.194Z,2.85
2018-05-31T04:01:33.979Z,3.22
2018-05-31T04:01:55.210Z,3.20
2018-05-31T04:02:16.445Z,3.28
2018-05-31T04:02:37.682Z,3.03
2018-05-31T04:02:58.981Z,2.87
2018-05-31T04:03:20.241Z,2.97
2018-05-31T04:03:41.457Z,3.30
2018-05-31T04:04:03.450Z,3.05
2018-05-31T04:04:24.678Z,2.90
2018-05-31T04:04:45.942Z,3.17
2018-05-31T04:05:07.606Z,2.97
2018-05-31T04:05:29.282Z,3.03
2018-05-31T04:05:50.498Z,3.12
2018-05-31T04:06:11.730Z,3.10
2018-05-31T04:06:33.334Z,3.12
2018-05-31T04:06:54.976Z,3.42
2018-05-31T04:07:16.596Z,3.53
2018-05-31T04:07:38.175Z,3.42
2018-05-31T04:07:59.443Z,3.10
2018-05-31T04:08:20.694Z,3.37
2018-05-31T04:08:42.701Z,3.37
2018-05-31T04:09:05.099Z,3.30
2018-05-31T04:09:26.317Z,3.40
2018-05-31T04:09:47.625Z,3.45
2018-05-31T04:10:08.962Z,3.42
2018-05-31T04:10:30.194Z,2.58
2018-05-31T04:10:51.510Z,3.08
2018-05-31T04:11:13.859Z,2.37
2018-05-31T04:11:35.076Z,2.50
2018-05-31T04:11:56.346Z,2.65
2018-05-31T04:12:17.588Z,2.83
2018-05-31T04:12:38.803Z,2.87
2018-05-31T04:13:00.515Z,2.85
2018-05-31T04:13:22.030Z,2.75
2018-05-31T04:13:43.313Z,2.80
2018-05-31T04:14:05.340Z,2.70
2018-05-31T04:14:27.359Z,2.72
2018-05-31T04:14:50.360Z,2.85
2018-05-31T04:15:12.001Z,2.60
2018-05-31T04:15:33.626Z,2.92
2018-05-31T04:15:55.288Z,2.83
2018-05-31T04:16:16.913Z,2.30
2018-05-31T04:16:39.880Z,2.60
2018-05-31T04:17:02.273Z,2.62
2018-05-31T04:17:23.898Z,2.47
2018-05-31T04:19:38.607Z,2.85
2018-05-31T04:20:00.025Z,2.83
2018-05-31T04:20:23.342Z,3.03
2018-05-31T04:20:45.494Z,2.78
2018-05-31T04:21:07.659Z,2.50
2018-05-31T04:21:30.702Z,2.50
2018-05-31T04:21:52.862Z,3.00
2018-05-31T04:22:15.867Z,2.85
2018-05-31T04:22:37.510Z,2.92
2018-05-31T04:23:00.592Z,2.78
2018-05-31T04:23:23.898Z,2.42
2018-05-31T04:23:45.471Z,2.50
2018-05-31T04:24:08.571Z,2.72
2018-05-31T04:24:31.748Z,2.62
2018-05-31T04:24:54.637Z,2.60
2018-05-31T04:25:17.496Z,2.75
2018-05-31T04:25:39.262Z,2.78
2018-05-31T04:26:01.532Z,2.70
2018-05-31T04:26:22.962Z,2.65
2018-05-31T04:26:44.453Z,2.75
2018-05-31T04:27:05.819Z,2.83
2018-05-31T04:27:27.596Z,2.85
2018-05-31T04:27:49.015Z,3.25
2018-05-31T04:28:12.182Z,3.25
2018-05-31T04:28:33.633Z,3.25
2018-05-31T04:28:55.013Z,3.70
2018-05-31T04:29:17.851Z,3.30
2018-05-31T04:29:41.081Z,3.67
2018-05-31T04:30:02.854Z,3.90
2018-05-31T04:30:25.957Z,3.80
2018-05-31T04:30:47.686Z,3.62
2018-05-31T04:31:10.205Z,3.83
2018-05-31T04:31:32.058Z,3.75
2018-05-31T04:31:55.195Z,3.78
2018-05-31T04:32:16.998Z,3.85
2018-05-31T04:32:39.745Z,3.67
2018-05-31T04:33:01.791Z,3.95
2018-05-31T04:34:49.058Z,4.20
2018-05-31T04:35:10.565Z,4.68
2018-05-31T04:35:32.736Z,4.55
2018-05-31T04:35:54.114Z,4.25
2018-05-31T04:36:16.220Z,4.20
2018-05-31T04:36:38.228Z,4.18
2018-05-31T04:37:00.504Z,4.72
2018-05-31T04:37:39.867Z,4.78
2018-05-31T04:38:01.397Z,4.55
2018-05-31T04:38:23.693Z,4.57
2018-05-31T04:38:46.913Z,4.85
2018-05-31T04:39:08.397Z,4.72
2018-05-31T04:39:30.957Z,5.10
2018-05-31T04:39:54.037Z,4.90
2018-05-31T04:40:17.080Z,5.10
2018-05-31T04:40:40.161Z,5.00
2018-05-31T04:41:01.631Z,4.80
2018-05-31T04:41:24.499Z,4.95
2018-05-31T04:41:46.693Z,5.45
2018-05-31T04:42:08.871Z,5.35
2018-05-31T04:42:31.009Z,4.93
2018-05-31T04:42:54.102Z,4.95
2018-05-31T04:43:15.926Z,4.90
2018-05-31T04:43:37.318Z,5.10
2018-05-31T04:44:00.700Z,4.95
2018-05-31T04:44:22.183Z,4.82
2018-05-31T04:44:44.401Z,4.90
2018-05-31T04:45:07.665Z,5.05
2018-05-31T04:45:30.582Z,5.15
2018-05-31T04:45:53.087Z,5.15
2018-05-31T04:46:16.160Z,5.20
2018-05-31T04:46:37.470Z,4.85
2018-05-31T04:46:58.892Z,4.75
2018-05-31T04:47:21.751Z,4.95
2018-05-31T04:47:43.067Z,4.60
2018-05-31T04:48:04.795Z,4.60
2018-05-31T04:48:26.866Z,4.72
2018-05-31T04:48:48.987Z,4.80
2018-05-31T04:49:11.056Z,4.68
2018-05-31T04:49:34.044Z,5.07
2018-05-31T04:49:56.792Z,4.47
2018-05-31T04:50:18.699Z,4.65
2018-05-31T04:50:40.337Z,4.32
2018-05-31T04:51:03.902Z,4.40
2018-05-31T04:51:26.429Z,4.40
2018-05-31T04:51:48.169Z,4.40
2018-05-31T04:52:10.687Z,3.85
2018-05-31T04:52:32.294Z,4.22
2018-05-31T04:52:54.005Z,4.62
2018-05-31T04:53:18.195Z,4.30
2018-05-31T04:53:40.113Z,3.65
2018-05-31T04:54:02.534Z,4.05
2018-05-31T04:54:26.651Z,4.47
2018-05-31T04:54:48.308Z,3.87
2018-05-31T04:55:10.357Z,3.85
2018-05-31T04:55:32.029Z,3.65
2018-05-31T04:55:54.761Z,3.60
2018-05-31T04:56:18.330Z,3.70
2018-05-31T04:56:42.306Z,3.60
2018-05-31T04:57:06.027Z,3.72
2018-05-31T04:57:28.744Z,3.17